PWSweather.com
Personal Weather Stations
Station Observations
IMAZOWIE6
WarszawaPL

WarszawaPL

Lat: 52.27957, Lon: 21.05489

Elevation: 100

Station Type: WS1080

http://stacjapogody.waw.pl/

High Low Average
Temperature 45.0°F7.2°C 36.3°F2.4°C 42.0°F5.6°C
Dew Point 13.0°F-10.6°C -169.2°F-111.8°C -82.6°F-63.7°C
Winds 4.0 mph 6.4 kmh Calm Calm 2.0 mph N3.2 kmh N
Wind Gusts 9.6 mph15.4 kmh -- 4.0 mph6.4 kmh
Humidity 29% 10% 25%
Pressure 29.62 in1003.0 mb 29.38 in994.9 mb -
Precipitation 0.00 in0.0 mm - -
Hour Temp Dew Point Humidity Winds Wind Gusts Pressure Precip Precip Rate Daily Precip Total
12:05 AM 43.5°F6.4°C 9.8°F-12.3°C 25% Calm Calm 2.0 mph3.2 kmh 29.60 in1002.4 mb 0.00 in0.0 mm 0.00 in0.0 mm 0.00 in0.0 mm
12:20 AM 43.7°F6.5°C 9.9°F-12.3°C 25% 0.6 mph N1.0 kmh N 4.0 mph6.4 kmh 29.60 in1002.4 mb 0.00 in0.0 mm 0.00 in0.0 mm 0.00 in0.0 mm
12:35 AM 43.7°F6.5°C 9.9°F-12.3°C 25% 0.6 mph N1.0 kmh N 2.8 mph4.5 kmh 29.60 in1002.4 mb 0.00 in0.0 mm 0.00 in0.0 mm 0.00 in0.0 mm
12:50 AM 43.7°F6.5°C 10.8°F-11.8°C 26% Calm Calm 2.0 mph3.2 kmh 29.60 in1002.4 mb 0.00 in0.0 mm 0.00 in0.0 mm 0.00 in0.0 mm
01:05 AM 43.5°F6.4°C 10.7°F-11.8°C 26% 1.4 mph N2.3 kmh N 4.0 mph6.4 kmh 29.60 in1002.4 mb 0.00 in0.0 mm 0.00 in0.0 mm 0.00 in0.0 mm
01:20 AM 43.7°F6.5°C 10.8°F-11.8°C 26% Calm Calm 2.0 mph3.2 kmh 29.61 in1002.7 mb 0.00 in0.0 mm 0.00 in0.0 mm 0.00 in0.0 mm
01:35 AM 43.7°F6.5°C 11.7°F-11.3°C 27% Calm Calm 2.0 mph3.2 kmh 29.61 in1002.7 mb 0.00 in0.0 mm 0.00 in0.0 mm 0.00 in0.0 mm
01:50 AM 43.5°F6.4°C 11.5°F-11.4°C 27% 0.6 mph N1.0 kmh N 3.4 mph5.5 kmh 29.61 in1002.7 mb 0.00 in0.0 mm 0.00 in0.0 mm 0.00 in0.0 mm
02:05 AM 43.7°F6.5°C 11.7°F-11.3°C 27% 0.6 mph N1.0 kmh N 2.8 mph4.5 kmh 29.61 in1002.7 mb 0.00 in0.0 mm 0.00 in0.0 mm 0.00 in0.0 mm
02:20 AM 43.7°F6.5°C 11.7°F-11.3°C 27% 1.4 mph N2.3 kmh N 3.4 mph5.5 kmh 29.61 in1002.7 mb 0.00 in0.0 mm 0.00 in0.0 mm 0.00 in0.0 mm
02:35 AM 43.7°F6.5°C 11.7°F-11.3°C 27% 0.6 mph N1.0 kmh N 2.8 mph4.5 kmh 29.62 in1003.0 mb 0.00 in0.0 mm 0.00 in0.0 mm 0.00 in0.0 mm
02:50 AM 43.7°F6.5°C 12.5°F-10.8°C 28% 0.6 mph N1.0 kmh N 4.0 mph6.4 kmh 29.62 in1003.0 mb 0.00 in0.0 mm 0.00 in0.0 mm 0.00 in0.0 mm
03:05 AM 43.5°F6.4°C 12.3°F-10.9°C 28% 1.4 mph N2.3 kmh N 4.8 mph7.7 kmh 29.61 in1002.7 mb 0.00 in0.0 mm 0.00 in0.0 mm 0.00 in0.0 mm
03:20 AM 43.5°F6.4°C 12.3°F-10.9°C 28% 1.4 mph N2.3 kmh N 4.8 mph7.7 kmh 29.61 in1002.7 mb 0.00 in0.0 mm 0.00 in0.0 mm 0.00 in0.0 mm
03:35 AM 43.3°F6.3°C 12.2°F-11.0°C 28% 1.4 mph N2.3 kmh N 3.4 mph5.5 kmh 29.61 in1002.7 mb 0.00 in0.0 mm 0.00 in0.0 mm 0.00 in0.0 mm
03:50 AM 43.3°F6.3°C 12.2°F-11.0°C 28% 2.0 mph N3.2 kmh N 4.8 mph7.7 kmh 29.61 in1002.7 mb 0.00 in0.0 mm 0.00 in0.0 mm 0.00 in0.0 mm
04:05 AM 43.2°F6.2°C 12.0°F-11.1°C 28% 1.4 mph N2.3 kmh N 4.0 mph6.4 kmh 29.61 in1002.7 mb 0.00 in0.0 mm 0.00 in0.0 mm 0.00 in0.0 mm
04:20 AM 43.3°F6.3°C 12.2°F-11.0°C 28% 1.4 mph N2.3 kmh N 5.4 mph8.7 kmh 29.60 in1002.4 mb 0.00 in0.0 mm 0.00 in0.0 mm 0.00 in0.0 mm
04:35 AM 43.3°F6.3°C 12.2°F-11.0°C 28% 3.4 mph N5.5 kmh N 7.4 mph11.9 kmh 29.60 in1002.4 mb 0.00 in0.0 mm 0.00 in0.0 mm 0.00 in0.0 mm
04:50 AM 43.3°F6.3°C 12.2°F-11.0°C 28% 2.8 mph N4.5 kmh N 4.8 mph7.7 kmh 29.61 in1002.7 mb 0.00 in0.0 mm 0.00 in0.0 mm 0.00 in0.0 mm
05:05 AM 43.3°F6.3°C 12.2°F-11.0°C 28% 0.6 mph N1.0 kmh N 4.8 mph7.7 kmh 29.60 in1002.4 mb 0.00 in0.0 mm 0.00 in0.0 mm 0.00 in0.0 mm
05:20 AM 43.2°F6.2°C 12.0°F-11.1°C 28% 1.4 mph N2.3 kmh N 3.4 mph5.5 kmh 29.61 in1002.7 mb 0.00 in0.0 mm 0.00 in0.0 mm 0.00 in0.0 mm
05:30 AM 43.2°F6.2°C 12.0°F-11.1°C 28% 1.4 mph N2.3 kmh N 3.4 mph5.5 kmh 29.61 in1002.7 mb 0.00 in0.0 mm 0.00 in0.0 mm 0.00 in0.0 mm
05:55 AM 43.2°F6.2°C 12.0°F-11.1°C 28% 1.4 mph N2.3 kmh N 5.4 mph8.7 kmh 29.61 in1002.7 mb 0.00 in0.0 mm 0.00 in0.0 mm 0.00 in0.0 mm
06:05 AM 43.3°F6.3°C 12.2°F-11.0°C 28% 0.6 mph N1.0 kmh N 3.4 mph5.5 kmh 29.61 in1002.7 mb 0.00 in0.0 mm 0.00 in0.0 mm 0.00 in0.0 mm
06:20 AM 43.2°F6.2°C 12.8°F-10.7°C 29% 2.8 mph N4.5 kmh N 4.8 mph7.7 kmh 29.61 in1002.7 mb 0.00 in0.0 mm 0.00 in0.0 mm 0.00 in0.0 mm
06:35 AM 43.3°F6.3°C 13.0°F-10.6°C 29% 2.0 mph N3.2 kmh N 4.8 mph7.7 kmh 29.61 in1002.7 mb 0.00 in0.0 mm 0.00 in0.0 mm 0.00 in0.0 mm
06:50 AM 43.3°F6.3°C 12.2°F-11.0°C 28% 2.8 mph N4.5 kmh N 6.2 mph10.0 kmh 29.61 in1002.7 mb 0.00 in0.0 mm 0.00 in0.0 mm 0.00 in0.0 mm
07:05 AM 43.3°F6.3°C 12.2°F-11.0°C 28% 2.8 mph N4.5 kmh N 5.4 mph8.7 kmh 29.61 in1002.7 mb 0.00 in0.0 mm 0.00 in0.0 mm 0.00 in0.0 mm
07:20 AM 43.3°F6.3°C 12.2°F-11.0°C 28% 2.8 mph N4.5 kmh N 5.4 mph8.7 kmh 29.61 in1002.7 mb 0.00 in0.0 mm 0.00 in0.0 mm 0.00 in0.0 mm
07:35 AM 43.5°F6.4°C 11.5°F-11.4°C 27% 2.0 mph N3.2 kmh N 4.0 mph6.4 kmh 29.61 in1002.7 mb 0.00 in0.0 mm 0.00 in0.0 mm 0.00 in0.0 mm
07:50 AM 43.5°F6.4°C 11.5°F-11.4°C 27% 2.8 mph N4.5 kmh N 6.2 mph10.0 kmh 29.61 in1002.7 mb 0.00 in0.0 mm 0.00 in0.0 mm 0.00 in0.0 mm
08:05 AM 43.5°F6.4°C 10.7°F-11.8°C 26% 2.0 mph N3.2 kmh N 4.0 mph6.4 kmh 29.62 in1003.0 mb 0.00 in0.0 mm 0.00 in0.0 mm 0.00 in0.0 mm
08:20 AM 43.5°F6.4°C 9.8°F-12.3°C 25% 2.8 mph N4.5 kmh N 5.4 mph8.7 kmh 29.62 in1003.0 mb 0.00 in0.0 mm 0.00 in0.0 mm 0.00 in0.0 mm
08:35 AM 43.7°F6.5°C 9.0°F-12.8°C 24% 2.0 mph N3.2 kmh N 5.4 mph8.7 kmh 29.62 in1003.0 mb 0.00 in0.0 mm 0.00 in0.0 mm 0.00 in0.0 mm
08:50 AM 43.7°F6.5°C 8.1°F-13.3°C 23% 1.4 mph N2.3 kmh N 5.4 mph8.7 kmh 29.62 in1003.0 mb 0.00 in0.0 mm 0.00 in0.0 mm 0.00 in0.0 mm
09:05 AM 43.9°F6.6°C 7.3°F-13.7°C 22% 2.0 mph N3.2 kmh N 6.2 mph10.0 kmh 29.62 in1003.0 mb 0.00 in0.0 mm 0.00 in0.0 mm 0.00 in0.0 mm
09:20 AM 44.1°F6.7°C 6.4°F-14.2°C 21% 0.6 mph N1.0 kmh N 4.0 mph6.4 kmh 29.62 in1003.0 mb 0.00 in0.0 mm 0.00 in0.0 mm 0.00 in0.0 mm
09:35 AM 43.9°F6.6°C 5.2°F-14.9°C 20% 1.4 mph N2.3 kmh N 6.8 mph10.9 kmh 29.62 in1003.0 mb 0.00 in0.0 mm 0.00 in0.0 mm 0.00 in0.0 mm
09:50 AM 43.9°F6.6°C 4.1°F-15.5°C 19% 1.4 mph N2.3 kmh N 3.4 mph5.5 kmh 29.61 in1002.7 mb 0.00 in0.0 mm 0.00 in0.0 mm 0.00 in0.0 mm
10:05 AM 43.9°F6.6°C 2.9°F-16.2°C 18% 1.4 mph N2.3 kmh N 3.4 mph5.5 kmh 29.61 in1002.7 mb 0.00 in0.0 mm 0.00 in0.0 mm 0.00 in0.0 mm
10:20 AM 44.1°F6.7°C 1.8°F-16.8°C 17% 0.6 mph N1.0 kmh N 2.8 mph4.5 kmh 29.62 in1003.0 mb 0.00 in0.0 mm 0.00 in0.0 mm 0.00 in0.0 mm
10:35 AM 44.1°F6.7°C -0.8°F-18.2°C 15% 0.6 mph N1.0 kmh N 2.8 mph4.5 kmh 29.61 in1002.7 mb 0.00 in0.0 mm 0.00 in0.0 mm 0.00 in0.0 mm
10:50 AM 44.4°F6.9°C -1.9°F-18.8°C 14% 2.0 mph N3.2 kmh N 5.4 mph8.7 kmh 29.60 in1002.4 mb 0.00 in0.0 mm 0.00 in0.0 mm 0.00 in0.0 mm
11:05 AM 44.6°F7.0°C -1.8°F-18.8°C 14% 1.4 mph N2.3 kmh N 5.4 mph8.7 kmh 29.60 in1002.4 mb 0.00 in0.0 mm 0.00 in0.0 mm 0.00 in0.0 mm
11:20 AM 44.8°F7.1°C -6.6°F-21.4°C 11% 0.6 mph N1.0 kmh N 4.0 mph6.4 kmh 29.60 in1002.4 mb 0.00 in0.0 mm 0.00 in0.0 mm 0.00 in0.0 mm
11:35 AM 45.0°F7.2°C -8.4°F-22.4°C 10% 2.8 mph N4.5 kmh N 7.4 mph11.9 kmh 29.60 in1002.4 mb 0.00 in0.0 mm 0.00 in0.0 mm 0.00 in0.0 mm
11:50 AM 44.6°F7.0°C -168.3°F-111.3°C - 2.0 mph N3.2 kmh N 4.8 mph7.7 kmh 29.59 in1002.0 mb 0.00 in0.0 mm 0.00 in0.0 mm 0.00 in0.0 mm
12:05 PM 44.6°F7.0°C -168.3°F-111.3°C - 2.8 mph N4.5 kmh N 6.2 mph10.0 kmh 29.59 in1002.0 mb 0.00 in0.0 mm 0.00 in0.0 mm 0.00 in0.0 mm
12:20 PM 44.8°F7.1°C -168.3°F-111.3°C - 2.0 mph N3.2 kmh N 4.0 mph6.4 kmh 29.59 in1002.0 mb 0.00 in0.0 mm 0.00 in0.0 mm 0.00 in0.0 mm
12:35 PM 45.0°F7.2°C -168.3°F-111.3°C - 0.6 mph N1.0 kmh N 2.8 mph4.5 kmh 29.58 in1001.7 mb 0.00 in0.0 mm 0.00 in0.0 mm 0.00 in0.0 mm
12:50 PM 44.8°F7.1°C -168.3°F-111.3°C - 1.4 mph N2.3 kmh N 4.0 mph6.4 kmh 29.58 in1001.7 mb 0.00 in0.0 mm 0.00 in0.0 mm 0.00 in0.0 mm
01:05 PM 45.0°F7.2°C -168.3°F-111.3°C - 1.4 mph N2.3 kmh N 3.4 mph5.5 kmh 29.58 in1001.7 mb 0.00 in0.0 mm 0.00 in0.0 mm 0.00 in0.0 mm
01:20 PM 44.8°F7.1°C -168.3°F-111.3°C - 2.0 mph N3.2 kmh N 3.4 mph5.5 kmh 29.57 in1001.4 mb 0.00 in0.0 mm 0.00 in0.0 mm 0.00 in0.0 mm
01:35 PM 44.6°F7.0°C -168.3°F-111.3°C - 0.6 mph N1.0 kmh N 2.8 mph4.5 kmh 29.57 in1001.4 mb 0.00 in0.0 mm 0.00 in0.0 mm 0.00 in0.0 mm
01:50 PM 44.4°F6.9°C -168.4°F-111.3°C - 3.4 mph N5.5 kmh N 6.8 mph10.9 kmh 29.56 in1001.0 mb 0.00 in0.0 mm 0.00 in0.0 mm 0.00 in0.0 mm
02:05 PM 44.2°F6.8°C -168.4°F-111.3°C - 2.0 mph N3.2 kmh N 5.4 mph8.7 kmh 29.56 in1001.0 mb 0.00 in0.0 mm 0.00 in0.0 mm 0.00 in0.0 mm
02:20 PM 43.9°F6.6°C -168.4°F-111.3°C - 4.0 mph N6.4 kmh N 9.6 mph15.4 kmh 29.56 in1001.0 mb 0.00 in0.0 mm 0.00 in0.0 mm 0.00 in0.0 mm
02:35 PM 43.9°F6.6°C -168.4°F-111.3°C - 1.4 mph N2.3 kmh N 4.0 mph6.4 kmh 29.56 in1001.0 mb 0.00 in0.0 mm 0.00 in0.0 mm 0.00 in0.0 mm
02:50 PM 43.5°F6.4°C -168.4°F-111.3°C - 1.4 mph N2.3 kmh N 3.4 mph5.5 kmh 29.55 in1000.7 mb 0.00 in0.0 mm 0.00 in0.0 mm 0.00 in0.0 mm
03:05 PM 43.5°F6.4°C -168.4°F-111.3°C - 2.0 mph N3.2 kmh N 4.0 mph6.4 kmh 29.55 in1000.7 mb 0.00 in0.0 mm 0.00 in0.0 mm 0.00 in0.0 mm
03:20 PM 43.3°F6.3°C -168.5°F-111.4°C - 1.4 mph N2.3 kmh N 4.0 mph6.4 kmh 29.55 in1000.7 mb 0.00 in0.0 mm 0.00 in0.0 mm 0.00 in0.0 mm
03:35 PM 43.2°F6.2°C -168.5°F-111.4°C - 3.4 mph N5.5 kmh N 6.8 mph10.9 kmh 29.54 in1000.3 mb 0.00 in0.0 mm 0.00 in0.0 mm 0.00 in0.0 mm
03:50 PM 43.0°F6.1°C -168.5°F-111.4°C - 2.8 mph N4.5 kmh N 4.8 mph7.7 kmh 29.54 in1000.3 mb 0.00 in0.0 mm 0.00 in0.0 mm 0.00 in0.0 mm
04:05 PM 43.2°F6.2°C -168.5°F-111.4°C - Calm Calm 4.0 mph6.4 kmh 29.53 in1000.0 mb 0.00 in0.0 mm 0.00 in0.0 mm 0.00 in0.0 mm
04:20 PM 42.6°F5.9°C -168.5°F-111.4°C - 2.0 mph N3.2 kmh N 4.8 mph7.7 kmh 29.53 in1000.0 mb 0.00 in0.0 mm 0.00 in0.0 mm 0.00 in0.0 mm
04:35 PM 41.7°F5.4°C -168.6°F-111.4°C - 0.6 mph N1.0 kmh N 2.8 mph4.5 kmh 29.52 in999.7 mb 0.00 in0.0 mm 0.00 in0.0 mm 0.00 in0.0 mm
04:50 PM 41.2°F5.1°C -168.7°F-111.5°C - 2.0 mph N3.2 kmh N 4.0 mph6.4 kmh 29.52 in999.7 mb 0.00 in0.0 mm 0.00 in0.0 mm 0.00 in0.0 mm
05:05 PM 41.2°F5.1°C -168.7°F-111.5°C - 1.4 mph N2.3 kmh N 3.4 mph5.5 kmh 29.51 in999.3 mb 0.00 in0.0 mm 0.00 in0.0 mm 0.00 in0.0 mm
05:20 PM 40.6°F4.8°C -168.7°F-111.5°C - 2.0 mph N3.2 kmh N 4.0 mph6.4 kmh 29.51 in999.3 mb 0.00 in0.0 mm 0.00 in0.0 mm 0.00 in0.0 mm
05:35 PM 40.3°F4.6°C -168.8°F-111.6°C - 0.6 mph N1.0 kmh N 2.8 mph4.5 kmh 29.50 in999.0 mb 0.00 in0.0 mm 0.00 in0.0 mm 0.00 in0.0 mm
05:50 PM 40.5°F4.7°C -168.8°F-111.6°C - 2.8 mph N4.5 kmh N 6.2 mph10.0 kmh 29.49 in998.6 mb 0.00 in0.0 mm 0.00 in0.0 mm 0.00 in0.0 mm
06:05 PM 40.5°F4.7°C -168.8°F-111.6°C - 2.8 mph N4.5 kmh N 5.4 mph8.7 kmh 29.49 in998.6 mb 0.00 in0.0 mm 0.00 in0.0 mm 0.00 in0.0 mm
06:20 PM 39.9°F4.4°C -168.8°F-111.6°C - 2.0 mph N3.2 kmh N 3.4 mph5.5 kmh 29.48 in998.3 mb 0.00 in0.0 mm 0.00 in0.0 mm 0.00 in0.0 mm
06:35 PM 39.4°F4.1°C -168.9°F-111.6°C - 2.8 mph N4.5 kmh N 6.2 mph10.0 kmh 29.48 in998.3 mb 0.00 in0.0 mm 0.00 in0.0 mm 0.00 in0.0 mm
06:50 PM 39.2°F4.0°C -168.9°F-111.6°C - 2.8 mph N4.5 kmh N 6.8 mph10.9 kmh 29.47 in998.0 mb 0.00 in0.0 mm 0.00 in0.0 mm 0.00 in0.0 mm
07:05 PM 38.8°F3.8°C -168.9°F-111.6°C - 2.8 mph N4.5 kmh N 5.4 mph8.7 kmh 29.47 in998.0 mb 0.00 in0.0 mm 0.00 in0.0 mm 0.00 in0.0 mm
07:20 PM 38.5°F3.6°C -169.0°F-111.7°C - 2.0 mph N3.2 kmh N 4.0 mph6.4 kmh 29.46 in997.6 mb 0.00 in0.0 mm 0.00 in0.0 mm 0.00 in0.0 mm
07:35 PM 38.3°F3.5°C -169.0°F-111.7°C - 2.0 mph N3.2 kmh N 4.0 mph6.4 kmh 29.46 in997.6 mb 0.00 in0.0 mm 0.00 in0.0 mm 0.00 in0.0 mm
07:50 PM 38.1°F3.4°C -169.0°F-111.7°C - 2.0 mph N3.2 kmh N 4.0 mph6.4 kmh 29.45 in997.3 mb 0.00 in0.0 mm 0.00 in0.0 mm 0.00 in0.0 mm
08:05 PM 37.8°F3.2°C -169.0°F-111.7°C - 0.6 mph N1.0 kmh N 3.4 mph5.5 kmh 29.44 in997.0 mb 0.00 in0.0 mm 0.00 in0.0 mm 0.00 in0.0 mm
08:20 PM 37.6°F3.1°C -169.0°F-111.7°C - 1.4 mph N2.3 kmh N 3.4 mph5.5 kmh 29.44 in997.0 mb 0.00 in0.0 mm 0.00 in0.0 mm 0.00 in0.0 mm
08:35 PM 37.6°F3.1°C -169.0°F-111.7°C - 1.4 mph N2.3 kmh N 3.4 mph5.5 kmh 29.44 in997.0 mb 0.00 in0.0 mm 0.00 in0.0 mm 0.00 in0.0 mm
08:50 PM 37.4°F3.0°C -169.1°F-111.7°C - 1.4 mph N2.3 kmh N 3.4 mph5.5 kmh 29.43 in996.6 mb 0.00 in0.0 mm 0.00 in0.0 mm 0.00 in0.0 mm
09:05 PM 37.4°F3.0°C -169.1°F-111.7°C - 1.4 mph N2.3 kmh N 4.8 mph7.7 kmh 29.43 in996.6 mb 0.00 in0.0 mm 0.00 in0.0 mm 0.00 in0.0 mm
09:17 PM 37.4°F3.0°C -169.1°F-111.7°C - 1.4 mph N2.3 kmh N 4.8 mph7.7 kmh 29.43 in996.6 mb 0.00 in0.0 mm 0.00 in0.0 mm 0.00 in0.0 mm
09:35 PM 37.2°F2.9°C -169.1°F-111.7°C - Calm Calm 2.8 mph4.5 kmh 29.42 in996.3 mb 0.00 in0.0 mm 0.00 in0.0 mm 0.00 in0.0 mm
09:50 PM 37.4°F3.0°C -169.1°F-111.7°C - 2.0 mph N3.2 kmh N 4.8 mph7.7 kmh 29.42 in996.3 mb 0.00 in0.0 mm 0.00 in0.0 mm 0.00 in0.0 mm
10:00 PM 37.4°F3.0°C -169.1°F-111.7°C - 2.0 mph N3.2 kmh N 4.8 mph7.7 kmh 29.42 in996.3 mb 0.00 in0.0 mm 0.00 in0.0 mm 0.00 in0.0 mm
10:20 PM 37.4°F3.0°C -169.1°F-111.7°C - 2.0 mph N3.2 kmh N 4.8 mph7.7 kmh 29.42 in996.3 mb 0.00 in0.0 mm 0.00 in0.0 mm 0.00 in0.0 mm
10:35 PM 37.4°F3.0°C -169.1°F-111.7°C - 0.6 mph N1.0 kmh N 2.8 mph4.5 kmh 29.40 in995.6 mb 0.00 in0.0 mm 0.00 in0.0 mm 0.00 in0.0 mm
10:48 PM 37.4°F3.0°C -169.1°F-111.7°C - 0.6 mph N1.0 kmh N 2.8 mph4.5 kmh 29.40 in995.6 mb 0.00 in0.0 mm 0.00 in0.0 mm 0.00 in0.0 mm
11:05 PM 37.2°F2.9°C -169.1°F-111.7°C - Calm Calm -- 29.40 in995.6 mb 0.00 in0.0 mm 0.00 in0.0 mm 0.00 in0.0 mm
11:35 PM 36.3°F2.4°C -169.2°F-111.8°C - 0.6 mph N1.0 kmh N 4.0 mph6.4 kmh 29.38 in994.9 mb 0.00 in0.0 mm 0.00 in0.0 mm 0.00 in0.0 mm
11:37 PM 36.5°F2.5°C -169.2°F-111.8°C - Calm Calm -- 29.39 in995.3 mb 0.00 in0.0 mm 0.00 in0.0 mm 0.00 in0.0 mm
11:46 PM 36.3°F2.4°C -169.2°F-111.8°C - 0.6 mph N1.0 kmh N 4.0 mph6.4 kmh 29.38 in994.9 mb 0.00 in0.0 mm 0.00 in0.0 mm 0.00 in0.0 mm
11:50 PM 36.3°F2.4°C -169.2°F-111.8°C - 0.6 mph N1.0 kmh N 4.0 mph6.4 kmh 29.38 in994.9 mb 0.00 in0.0 mm 0.00 in0.0 mm 0.00 in0.0 mm